Achilleas — SYLL — position and weather

sailwx.info

Track history (hours):
 
Tides and Currents Weather Stations Pressure Air Temp Water Temp Dewpoint Dewpoint Depression Visibility Wind Speed Wind Dir Waves Ship Positions

Achilleas

Last reported at 2017-Sep-19 16:16 UTC. Time now 2017-Sep-26 21:37 UTC.
Position N 38°47' E 024°28'.

Length 95 m; draft 4.5 m.

Type: Passenger vessel. MMSI: 240184000.

Date/timePositionNaut miles runAvg speedWind from/ knotsBaromVisibWave heightAir tempDewpointWater temp
2017-Sep-19 16:16N 38°47' E 024°28'415.2
2017-Sep-19 16:00N 38°45' E 024°23'815.5
2017-Sep-19 15:30N 38°41' E 024°15'10 0.4
2017-Sep-18 16:11N 38°46' E 024°26'315.4
2017-Sep-18 16:00N 38°45' E 024°23'815.3
2017-Sep-18 15:31N 38°41' E 024°15'12 0.6
2017-Sep-17 19:32N 38°47' E 024°28'115.7
2017-Sep-17 19:30N 38°47' E 024°27'715.4
2017-Sep-17 19:00N 38°43' E 024°19'815.4
2017-Sep-17 18:30N 38°39' E 024°11'3 1.9
2017-Sep-17 17:09N 38°40' E 024°13'315.9
2017-Sep-17 16:59N 38°41' E 024°16'816.3
2017-Sep-17 16:30N 38°45' E 024°25'3 1.6
2017-Sep-17 14:22N 38°47' E 024°29'615.2
2017-Sep-17 14:00N 38°44' E 024°23'815.2
2017-Sep-17 13:30N 38°40' E 024°14'0 0.2
2017-Sep-17 11:09N 38°40' E 024°14'215.9
2017-Sep-17 11:00N 38°41' E 024°16'815.8
2017-Sep-17 10:31N 38°46' E 024°25'3 0.1
2017-Sep-16 10:29N 38°47' E 024°29'11 0.5
2017-Sep-15 13:58N 38°42' E 024°17'816.5
2017-Sep-15 13:30N 38°46' E 024°25'2 1.1
2017-Sep-15 11:18N 38°47' E 024°28'415.0
2017-Sep-15 11:00N 38°44' E 024°23'  
2017-Sep-11 16:14N 38°47' E 024°27'415.5
2017-Sep-11 16:00N 38°45' E 024°24'815.9
2017-Sep-11 15:30N 38°41' E 024°15'11 2.1
2017-Sep-11 10:14N 38°47' E 024°27'415.7
2017-Sep-11 10:00N 38°45' E 024°23'815.8
2017-Sep-11 09:31N 38°41' E 024°15'11 0.7
2017-Sep-10 17:43N 38°47' E 024°27'316.0
2017-Sep-10 17:30N 38°45' E 024°24'7 2.7
2017-Sep-10 15:01N 38°42' E 024°16'014.7
2017-Sep-10 15:00N 38°42' E 024°17'10 3.7
2017-Sep-10 12:16N 38°47' E 024°28'  
Track history (hours):
 
Tides and Currents Weather Stations Pressure Air Temp Water Temp Dewpoint Dewpoint Depression Visibility Wind Speed Wind Dir Waves Ship Positions

Achilleas

Last reported at 2017-Sep-19 16:16 UTC. Time now 2017-Sep-26 21:37 UTC.
Position N 38°47' E 024°28'.

Length 95 m; draft 4.5 m.

Type: Passenger vessel. MMSI: 240184000.

Date/timePositionNaut miles runAvg speedWind from/ knotsBaromVisibWave heightAir tempDewpointWater temp
2017-Sep-19 16:16N 38°47' E 024°28'415.2
2017-Sep-19 16:00N 38°45' E 024°23'815.5
2017-Sep-19 15:30N 38°41' E 024°15'10 0.4
2017-Sep-18 16:11N 38°46' E 024°26'315.4
2017-Sep-18 16:00N 38°45' E 024°23'815.3
2017-Sep-18 15:31N 38°41' E 024°15'12 0.6
2017-Sep-17 19:32N 38°47' E 024°28'115.7
2017-Sep-17 19:30N 38°47' E 024°27'715.4
2017-Sep-17 19:00N 38°43' E 024°19'815.4
2017-Sep-17 18:30N 38°39' E 024°11'3 1.9
2017-Sep-17 17:09N 38°40' E 024°13'315.9
2017-Sep-17 16:59N 38°41' E 024°16'816.3
2017-Sep-17 16:30N 38°45' E 024°25'3 1.6
2017-Sep-17 14:22N 38°47' E 024°29'615.2
2017-Sep-17 14:00N 38°44' E 024°23'815.2
2017-Sep-17 13:30N 38°40' E 024°14'0 0.2
2017-Sep-17 11:09N 38°40' E 024°14'215.9
2017-Sep-17 11:00N 38°41' E 024°16'815.8
2017-Sep-17 10:31N 38°46' E 024°25'3 0.1
2017-Sep-16 10:29N 38°47' E 024°29'11 0.5
2017-Sep-15 13:58N 38°42' E 024°17'816.5
2017-Sep-15 13:30N 38°46' E 024°25'2 1.1
2017-Sep-15 11:18N 38°47' E 024°28'415.0
2017-Sep-15 11:00N 38°44' E 024°23'  
2017-Sep-11 16:14N 38°47' E 024°27'415.5
2017-Sep-11 16:00N 38°45' E 024°24'815.9
2017-Sep-11 15:30N 38°41' E 024°15'11 2.1
2017-Sep-11 10:14N 38°47' E 024°27'415.7
2017-Sep-11 10:00N 38°45' E 024°23'815.8
2017-Sep-11 09:31N 38°41' E 024°15'11 0.7
2017-Sep-10 17:43N 38°47' E 024°27'316.0
2017-Sep-10 17:30N 38°45' E 024°24'7 2.7
2017-Sep-10 15:01N 38°42' E 024°16'014.7
2017-Sep-10 15:00N 38°42' E 024°17'10 3.7
2017-Sep-10 12:16N 38°47' E 024°28'  

Dump ship's entire track history